Buoy 41936

sailwx.info

Track history (hours):
 
Tides and Currents Weather Stations Pressure Air Temp Water Temp Dewpoint Dewpoint Depression Visibility Wind Speed Wind Dir Waves Ship Positions

Drifting buoy 41936

Last reported at 2016-Jul-02 01:00 UTC. Time now 2016-Jul-02 05:48 UTC.
Position N 35°33' W 057°39'.

Barometer 1024.0 mb

Date/timePositionNaut miles runAvg speedWind from/ knotsBaromVisibWave heightAir tempDewpointWater temp
2016-Jul-02 01:00N 35°33' W 057°39'0 0.5 1024.0
2016-Jul-02 00:00N 35°32' W 057°39'1 0.4 1024.0
2016-Jul-01 21:00N 35°31' W 057°40'0 0.1 1023.4
2016-Jul-01 19:00N 35°31' W 057°40'2 1.8 1024.0
2016-Jul-01 18:00N 35°32' W 057°43'0 0.0 1023.8
2016-Jul-01 17:00N 35°32' W 057°43'1 0.7 1024.4
2016-Jul-01 16:00N 35°31' W 057°42'1 0.7 1024.7
2016-Jul-01 15:00N 35°31' W 057°42'0 0.2 1024.9
2016-Jul-01 14:00N 35°31' W 057°42'1 0.7 1024.9
2016-Jul-01 12:00N 35°30' W 057°44'1 0.7 1025.1
2016-Jul-01 11:00N 35°30' W 057°45'2 0.8 1024.8
2016-Jul-01 09:00N 35°29' W 057°46'0 0.0 1024.5
2016-Jul-01 08:00N 35°29' W 057°46'5 2.5 1024.2
2016-Jul-01 06:00N 35°24' W 057°49'1 0.2 1024.6
2016-Jul-01 02:00N 35°24' W 057°48'1 0.8 1026.3
2016-Jul-01 01:00N 35°23' W 057°49'1 1.2 1026.0
2016-Jul-01 00:00N 35°23' W 057°47'1 0.6 1025.6
2016-Jun-30 23:00N 35°22' W 057°48'0 0.5 1025.4
2016-Jun-30 22:00N 35°22' W 057°47'1 0.3 1024.9
2016-Jun-30 18:00N 35°21' W 057°49'0 0.0 1025.2
2016-Jun-30 17:00N 35°21' W 057°49'2 0.8 1025.5
2016-Jun-30 14:00N 35°20' W 057°51'2 1.8 1026.0
2016-Jun-30 13:00N 35°18' W 057°52'2 0.8 1025.8
2016-Jun-30 11:00N 35°16' W 057°53'1 1.0 1025.1
2016-Jun-30 10:00N 35°15' W 057°53'2 1.1 1024.8
2016-Jun-30 08:00N 35°13' W 057°53'3 3.2 1024.4
2016-Jun-30 07:00N 35°11' W 057°51'3 3.2 1024.5
2016-Jun-30 06:00N 35°13' W 057°53'3 0.8 1024.9
2016-Jun-30 02:00N 35°11' W 057°51'0 0.4 1026.3
2016-Jun-30 01:00N 35°11' W 057°50'1 0.5 1026.3
2016-Jun-30 00:00N 35°10' W 057°50'1 0.8 1025.8
2016-Jun-29 23:00N 35°11' W 057°50'1 0.8 1025.3
2016-Jun-29 22:00N 35°10' W 057°51'1 0.8 1025.1
2016-Jun-29 21:00N 35°10' W 057°51'2 1.6 1024.6
2016-Jun-29 20:00N 35°08' W 057°52'2 0.8 1024.9
2016-Jun-29 18:00N 35°07' W 057°53'0 0.5 1024.7
2016-Jun-29 17:00N 35°06' W 057°53'2 1.7 1025.3
2016-Jun-29 16:00N 35°05' W 057°52'1 0.4 1025.3
2016-Jun-29 14:00N 35°04' W 057°52'3 1.3 1025.9
2016-Jun-29 12:00N 35°02' W 057°50'1 1.0 1025.8
2016-Jun-29 11:00N 35°01' W 057°49'1 0.9 1025.8
2016-Jun-29 10:00N 35°01' W 057°48'1 1.3 1025.6
2016-Jun-29 09:00N 34°60' W 057°47'0 0.0 1025.2
2016-Jun-29 08:00N 34°60' W 057°47'1 0.8 1024.8
2016-Jun-29 07:00N 34°60' W 057°46'0 0.0 1024.8
2016-Jun-29 06:00N 34°60' W 057°46'2 0.4 1024.8
2016-Jun-29 01:00N 34°58' W 057°46'1 1.4 1026.0
2016-Jun-29 00:00N 34°56' W 057°46'0 0.0 1025.5
2016-Jun-28 22:00N 34°56' W 057°46'2 2.4 1025.0
2016-Jun-28 21:00N 34°54' W 057°45'1 0.5 1025.0
2016-Jun-28 19:00N 34°53' W 057°44'1 1.5 1025.2
2016-Jun-28 18:00N 34°52' W 057°43'2 2.0 1025.5
2016-Jun-28 17:00N 34°51' W 057°41'5 0.5 1025.9
2016-Jun-28 07:00N 34°48' W 057°36'0 0.0 1024.9
2016-Jun-28 06:00N 34°48' W 057°36'1 1.4 1025.1
2016-Jun-28 05:00N 34°47' W 057°35'1 0.3 1025.4
2016-Jun-28 02:00N 34°47' W 057°34'1 0.5 1026.6
2016-Jun-28 01:00N 34°47' W 057°33'0 0.3 1026.5
2016-Jun-28 00:00N 34°47' W 057°33'1 1.4 1026.1
2016-Jun-27 23:00N 34°46' W 057°32'0 0.5 1026.1
2016-Jun-27 22:00N 34°46' W 057°32'1 0.8 1025.7
2016-Jun-27 21:00N 34°45' W 057°31'2 0.8 1025.6
2016-Jun-27 19:00N 34°44' W 057°31'1 1.1 1025.8
2016-Jun-27 18:00N 34°43' W 057°30'1 1.1 1026.3
2016-Jun-27 17:00N 34°43' W 057°28'0 0.0 1026.5
2016-Jun-27 16:00N 34°43' W 057°28'2 1.1 1026.5
2016-Jun-27 14:00N 34°42' W 057°26'1 0.6 1026.7
2016-Jun-27 12:00N 34°41' W 057°25'1 0.5 1026.2
2016-Jun-27 10:00N 34°41' W 057°24'1 0.8 1025.9
2016-Jun-27 09:00N 34°41' W 057°23'1 0.7 1025.1
2016-Jun-27 08:00N 34°40' W 057°24'1 0.5 1024.9
2016-Jun-27 07:00N 34°40' W 057°24'0 0.1 1024.7
2016-Jun-27 06:00N 34°40' W 057°24'2 2.1 1024.7
2016-Jun-27 05:00N 34°38' W 057°24'2 0.4 1024.9
2016-Jun-27 01:00N 34°36' W 057°23'0 0.2 1025.1
2016-Jun-26 23:00N 34°36' W 057°23'1 1.3 1024.5
2016-Jun-26 22:00N 34°35' W 057°22'0 0.4 1024.2
2016-Jun-26 21:00N 34°35' W 057°21'1 0.9 1024.0
2016-Jun-26 20:00N 34°35' W 057°21'2 0.8 1024.1
2016-Jun-26 18:00N 34°34' W 057°19'1 1.5 1024.4
2016-Jun-26 17:00N 34°33' W 057°18'2 1.7 1024.3
2016-Jun-26 16:00N 34°33' W 057°20'2 1.7 1024.7
2016-Jun-26 15:00N 34°33' W 057°18'0 0.2 1024.7
2016-Jun-26 14:00N 34°33' W 057°18'1 0.4 1024.9
2016-Jun-26 12:00N 34°32' W 057°17'1 0.3 1024.4
2016-Jun-26 10:00N 34°32' W 057°16'1 0.3 1024.3
2016-Jun-26 07:00N 34°31' W 057°17'2 2.4 1022.7
2016-Jun-26 06:00N 34°29' W 057°17'2 2.4 1023.1
2016-Jun-26 05:00N 34°31' W 057°17'3 1.1 1023.5
2016-Jun-26 02:00N 34°28' W 057°17'1 0.7 1024.9
2016-Jun-26 01:00N 34°28' W 057°17'1 0.9 1024.9
2016-Jun-26 00:00N 34°27' W 057°18'1 1.5 1024.5
2016-Jun-25 23:00N 34°26' W 057°17'0 0.1 1024.3
2016-Jun-25 22:00N 34°26' W 057°16'1 1.2 1023.7
2016-Jun-25 21:00N 34°25' W 057°16'0 0.3 1023.7
2016-Jun-25 20:00N 34°25' W 057°16'2 1.8 1023.8
2016-Jun-25 19:00N 34°23' W 057°15'0 0.2 1024.0
2016-Jun-25 18:00N 34°23' W 057°15'1 0.3 1024.2
2016-Jun-25 14:00N 34°22' W 057°14'1 0.9 1024.8
2016-Jun-25 13:00N 34°22' W 057°13'1 1.0 1025.0
2016-Jun-25 12:00N 34°22' W 057°14'0 0.1 1024.8
2016-Jun-25 11:00N 34°22' W 057°14'1 0.7 1024.7
2016-Jun-25 10:00N 34°21' W 057°15'0 0.1 1024.6
2016-Jun-25 09:00N 34°21' W 057°14'0 0.3 1024.2
2016-Jun-25 08:00N 34°21' W 057°15'1 0.7 1023.8
2016-Jun-25 07:00N 34°20' W 057°15'3 0.5 1023.7
2016-Jun-25 01:00N 34°18' W 057°16'1 0.3 1024.8
2016-Jun-24 22:00N 34°16' W 057°15'1 0.8 1023.9
2016-Jun-24 21:00N 34°16' W 057°16'1 0.4 1024.2
2016-Jun-24 19:00N 34°16' W 057°17'0 0.0 1024.9
2016-Jun-24 18:00N 34°16' W 057°17'2 0.8 1025.0
2016-Jun-24 15:00N 34°15' W 057°20'0 0.0 1025.3
2016-Jun-24 14:00N 34°15' W 057°20'0 0.3 1025.3
2016-Jun-24 13:00N 34°15' W 057°19'2 1.6 1025.0
2016-Jun-24 12:00N 34°14' W 057°21'0 0.2 1024.4
2016-Jun-24 11:00N 34°14' W 057°20'0 0.3 1024.2
2016-Jun-24 10:00N 34°14' W 057°21'1 1.1 1024.0
2016-Jun-24 09:00N 34°13' W 057°21'1 1.2 1023.8
2016-Jun-24 08:00N 34°12' W 057°22'0 0.0 1023.4
2016-Jun-24 07:00N 34°12' W 057°22'3 0.5 1023.2
2016-Jun-24 02:00N 34°09' W 057°22'0 0.1 1025.6
2016-Jun-23 23:00N 34°09' W 057°22'1 0.8 1024.9
2016-Jun-23 22:00N 34°08' W 057°22'1 0.5 1024.7
2016-Jun-23 21:00N 34°08' W 057°23'2 0.8 1024.6
2016-Jun-23 19:00N 34°06' W 057°22'2 1.7 1025.2
2016-Jun-23 18:00N 34°05' W 057°24'0 0.0 1025.6
2016-Jun-23 17:00N 34°05' W 057°24'1 0.3 1025.1
2016-Jun-23 13:00N 34°04' W 057°23'1 0.9 1025.5
2016-Jun-23 12:00N 34°04' W 057°24'1 1.0 1025.3
2016-Jun-23 11:00N 34°03' W 057°24'0 0.5 1025.4
2016-Jun-23 10:00N 34°03' W 057°24'1 0.5 1025.5
2016-Jun-23 08:00N 34°02' W 057°24'2 1.2 1025.3
2016-Jun-23 06:00N 33°60' W 057°25'1 0.1 1025.6
2016-Jun-23 02:00N 34°00' W 057°25'0 0.3 1026.9
2016-Jun-23 01:00N 33°60' W 057°25'0 0.1 1026.9
2016-Jun-23 00:00N 33°60' W 057°24'1 0.6 1026.4
2016-Jun-22 22:00N 33°59' W 057°25'0 0.0 1025.5
2016-Jun-22 21:00N 33°59' W 057°25'0 0.4 1025.7
2016-Jun-22 20:00N 33°58' W 057°24'1 0.8 1025.4
2016-Jun-22 19:00N 33°58' W 057°24'0 0.4 1025.8
2016-Jun-22 18:00N 33°57' W 057°24'0 0.0 1026.3
2016-Jun-22 17:00N 33°57' W 057°24'0 0.0 1026.4
2016-Jun-22 16:00N 33°57' W 057°24'1 1.1 1026.8
2016-Jun-22 15:00N 33°57' W 057°25'0 0.0 1027.1
2016-Jun-22 14:00N 33°57' W 057°25'1 0.4 1027.2
2016-Jun-22 12:00N 33°56' W 057°25'0 0.4 1027.0
2016-Jun-22 11:00N 33°55' W 057°25'0 0.3 1026.8
2016-Jun-22 10:00N 33°55' W 057°25'1 0.4 1026.6
2016-Jun-22 08:00N 33°55' W 057°24'1 1.4 1025.7
2016-Jun-22 07:00N 33°54' W 057°26'0 0.0 1026.0
2016-Jun-22 06:00N 33°54' W 057°26'1 0.1 1026.2
2016-Jun-22 01:00N 33°54' W 057°26'   1026.9
Track history (hours):
 
Tides and Currents Weather Stations Pressure Air Temp Water Temp Dewpoint Dewpoint Depression Visibility Wind Speed Wind Dir Waves Ship Positions

Drifting buoy 41936

Last reported at 2016-Jul-02 01:00 UTC. Time now 2016-Jul-02 05:48 UTC.
Position N 35°33' W 057°39'.

Barometer 1024.0 mb

Date/timePositionNaut miles runAvg speedWind from/ knotsBaromVisibWave heightAir tempDewpointWater temp
2016-Jul-02 01:00N 35°33' W 057°39'0 0.5 1024.0
2016-Jul-02 00:00N 35°32' W 057°39'1 0.4 1024.0
2016-Jul-01 21:00N 35°31' W 057°40'0 0.1 1023.4
2016-Jul-01 19:00N 35°31' W 057°40'2 1.8 1024.0
2016-Jul-01 18:00N 35°32' W 057°43'0 0.0 1023.8
2016-Jul-01 17:00N 35°32' W 057°43'1 0.7 1024.4
2016-Jul-01 16:00N 35°31' W 057°42'1 0.7 1024.7
2016-Jul-01 15:00N 35°31' W 057°42'0 0.2 1024.9
2016-Jul-01 14:00N 35°31' W 057°42'1 0.7 1024.9
2016-Jul-01 12:00N 35°30' W 057°44'1 0.7 1025.1
2016-Jul-01 11:00N 35°30' W 057°45'2 0.8 1024.8
2016-Jul-01 09:00N 35°29' W 057°46'0 0.0 1024.5
2016-Jul-01 08:00N 35°29' W 057°46'5 2.5 1024.2
2016-Jul-01 06:00N 35°24' W 057°49'1 0.2 1024.6
2016-Jul-01 02:00N 35°24' W 057°48'1 0.8 1026.3
2016-Jul-01 01:00N 35°23' W 057°49'1 1.2 1026.0
2016-Jul-01 00:00N 35°23' W 057°47'1 0.6 1025.6
2016-Jun-30 23:00N 35°22' W 057°48'0 0.5 1025.4
2016-Jun-30 22:00N 35°22' W 057°47'1 0.3 1024.9
2016-Jun-30 18:00N 35°21' W 057°49'0 0.0 1025.2
2016-Jun-30 17:00N 35°21' W 057°49'2 0.8 1025.5
2016-Jun-30 14:00N 35°20' W 057°51'2 1.8 1026.0
2016-Jun-30 13:00N 35°18' W 057°52'2 0.8 1025.8
2016-Jun-30 11:00N 35°16' W 057°53'1 1.0 1025.1
2016-Jun-30 10:00N 35°15' W 057°53'2 1.1 1024.8
2016-Jun-30 08:00N 35°13' W 057°53'3 3.2 1024.4
2016-Jun-30 07:00N 35°11' W 057°51'3 3.2 1024.5
2016-Jun-30 06:00N 35°13' W 057°53'3 0.8 1024.9
2016-Jun-30 02:00N 35°11' W 057°51'0 0.4 1026.3
2016-Jun-30 01:00N 35°11' W 057°50'1 0.5 1026.3
2016-Jun-30 00:00N 35°10' W 057°50'1 0.8 1025.8
2016-Jun-29 23:00N 35°11' W 057°50'1 0.8 1025.3
2016-Jun-29 22:00N 35°10' W 057°51'1 0.8 1025.1
2016-Jun-29 21:00N 35°10' W 057°51'2 1.6 1024.6
2016-Jun-29 20:00N 35°08' W 057°52'2 0.8 1024.9
2016-Jun-29 18:00N 35°07' W 057°53'0 0.5 1024.7
2016-Jun-29 17:00N 35°06' W 057°53'2 1.7 1025.3
2016-Jun-29 16:00N 35°05' W 057°52'1 0.4 1025.3
2016-Jun-29 14:00N 35°04' W 057°52'3 1.3 1025.9
2016-Jun-29 12:00N 35°02' W 057°50'1 1.0 1025.8
2016-Jun-29 11:00N 35°01' W 057°49'1 0.9 1025.8
2016-Jun-29 10:00N 35°01' W 057°48'1 1.3 1025.6
2016-Jun-29 09:00N 34°60' W 057°47'0 0.0 1025.2
2016-Jun-29 08:00N 34°60' W 057°47'1 0.8 1024.8
2016-Jun-29 07:00N 34°60' W 057°46'0 0.0 1024.8
2016-Jun-29 06:00N 34°60' W 057°46'2 0.4 1024.8
2016-Jun-29 01:00N 34°58' W 057°46'1 1.4 1026.0
2016-Jun-29 00:00N 34°56' W 057°46'0 0.0 1025.5
2016-Jun-28 22:00N 34°56' W 057°46'2 2.4 1025.0
2016-Jun-28 21:00N 34°54' W 057°45'1 0.5 1025.0
2016-Jun-28 19:00N 34°53' W 057°44'1 1.5 1025.2
2016-Jun-28 18:00N 34°52' W 057°43'2 2.0 1025.5
2016-Jun-28 17:00N 34°51' W 057°41'5 0.5 1025.9
2016-Jun-28 07:00N 34°48' W 057°36'0 0.0 1024.9
2016-Jun-28 06:00N 34°48' W 057°36'1 1.4 1025.1
2016-Jun-28 05:00N 34°47' W 057°35'1 0.3 1025.4
2016-Jun-28 02:00N 34°47' W 057°34'1 0.5 1026.6
2016-Jun-28 01:00N 34°47' W 057°33'0 0.3 1026.5
2016-Jun-28 00:00N 34°47' W 057°33'1 1.4 1026.1
2016-Jun-27 23:00N 34°46' W 057°32'0 0.5 1026.1
2016-Jun-27 22:00N 34°46' W 057°32'1 0.8 1025.7
2016-Jun-27 21:00N 34°45' W 057°31'2 0.8 1025.6
2016-Jun-27 19:00N 34°44' W 057°31'1 1.1 1025.8
2016-Jun-27 18:00N 34°43' W 057°30'1 1.1 1026.3
2016-Jun-27 17:00N 34°43' W 057°28'0 0.0 1026.5
2016-Jun-27 16:00N 34°43' W 057°28'2 1.1 1026.5
2016-Jun-27 14:00N 34°42' W 057°26'1 0.6 1026.7
2016-Jun-27 12:00N 34°41' W 057°25'1 0.5 1026.2
2016-Jun-27 10:00N 34°41' W 057°24'1 0.8 1025.9
2016-Jun-27 09:00N 34°41' W 057°23'1 0.7 1025.1
2016-Jun-27 08:00N 34°40' W 057°24'1 0.5 1024.9
2016-Jun-27 07:00N 34°40' W 057°24'0 0.1 1024.7
2016-Jun-27 06:00N 34°40' W 057°24'2 2.1 1024.7
2016-Jun-27 05:00N 34°38' W 057°24'2 0.4 1024.9
2016-Jun-27 01:00N 34°36' W 057°23'0 0.2 1025.1
2016-Jun-26 23:00N 34°36' W 057°23'1 1.3 1024.5
2016-Jun-26 22:00N 34°35' W 057°22'0 0.4 1024.2
2016-Jun-26 21:00N 34°35' W 057°21'1 0.9 1024.0
2016-Jun-26 20:00N 34°35' W 057°21'2 0.8 1024.1
2016-Jun-26 18:00N 34°34' W 057°19'1 1.5 1024.4
2016-Jun-26 17:00N 34°33' W 057°18'2 1.7 1024.3
2016-Jun-26 16:00N 34°33' W 057°20'2 1.7 1024.7
2016-Jun-26 15:00N 34°33' W 057°18'0 0.2 1024.7
2016-Jun-26 14:00N 34°33' W 057°18'1 0.4 1024.9
2016-Jun-26 12:00N 34°32' W 057°17'1 0.3 1024.4
2016-Jun-26 10:00N 34°32' W 057°16'1 0.3 1024.3
2016-Jun-26 07:00N 34°31' W 057°17'2 2.4 1022.7
2016-Jun-26 06:00N 34°29' W 057°17'2 2.4 1023.1
2016-Jun-26 05:00N 34°31' W 057°17'3 1.1 1023.5
2016-Jun-26 02:00N 34°28' W 057°17'1 0.7 1024.9
2016-Jun-26 01:00N 34°28' W 057°17'1 0.9 1024.9
2016-Jun-26 00:00N 34°27' W 057°18'1 1.5 1024.5
2016-Jun-25 23:00N 34°26' W 057°17'0 0.1 1024.3
2016-Jun-25 22:00N 34°26' W 057°16'1 1.2 1023.7
2016-Jun-25 21:00N 34°25' W 057°16'0 0.3 1023.7
2016-Jun-25 20:00N 34°25' W 057°16'2 1.8 1023.8
2016-Jun-25 19:00N 34°23' W 057°15'0 0.2 1024.0
2016-Jun-25 18:00N 34°23' W 057°15'1 0.3 1024.2
2016-Jun-25 14:00N 34°22' W 057°14'1 0.9 1024.8
2016-Jun-25 13:00N 34°22' W 057°13'1 1.0 1025.0
2016-Jun-25 12:00N 34°22' W 057°14'0 0.1 1024.8
2016-Jun-25 11:00N 34°22' W 057°14'1 0.7 1024.7
2016-Jun-25 10:00N 34°21' W 057°15'0 0.1 1024.6
2016-Jun-25 09:00N 34°21' W 057°14'0 0.3 1024.2
2016-Jun-25 08:00N 34°21' W 057°15'1 0.7 1023.8
2016-Jun-25 07:00N 34°20' W 057°15'3 0.5 1023.7
2016-Jun-25 01:00N 34°18' W 057°16'1 0.3 1024.8
2016-Jun-24 22:00N 34°16' W 057°15'1 0.8 1023.9
2016-Jun-24 21:00N 34°16' W 057°16'1 0.4 1024.2
2016-Jun-24 19:00N 34°16' W 057°17'0 0.0 1024.9
2016-Jun-24 18:00N 34°16' W 057°17'2 0.8 1025.0
2016-Jun-24 15:00N 34°15' W 057°20'0 0.0 1025.3
2016-Jun-24 14:00N 34°15' W 057°20'0 0.3 1025.3
2016-Jun-24 13:00N 34°15' W 057°19'2 1.6 1025.0
2016-Jun-24 12:00N 34°14' W 057°21'0 0.2 1024.4
2016-Jun-24 11:00N 34°14' W 057°20'0 0.3 1024.2
2016-Jun-24 10:00N 34°14' W 057°21'1 1.1 1024.0
2016-Jun-24 09:00N 34°13' W 057°21'1 1.2 1023.8
2016-Jun-24 08:00N 34°12' W 057°22'0 0.0 1023.4
2016-Jun-24 07:00N 34°12' W 057°22'3 0.5 1023.2
2016-Jun-24 02:00N 34°09' W 057°22'0 0.1 1025.6
2016-Jun-23 23:00N 34°09' W 057°22'1 0.8 1024.9
2016-Jun-23 22:00N 34°08' W 057°22'1 0.5 1024.7
2016-Jun-23 21:00N 34°08' W 057°23'2 0.8 1024.6
2016-Jun-23 19:00N 34°06' W 057°22'2 1.7 1025.2
2016-Jun-23 18:00N 34°05' W 057°24'0 0.0 1025.6
2016-Jun-23 17:00N 34°05' W 057°24'1 0.3 1025.1
2016-Jun-23 13:00N 34°04' W 057°23'1 0.9 1025.5
2016-Jun-23 12:00N 34°04' W 057°24'1 1.0 1025.3
2016-Jun-23 11:00N 34°03' W 057°24'0 0.5 1025.4
2016-Jun-23 10:00N 34°03' W 057°24'1 0.5 1025.5
2016-Jun-23 08:00N 34°02' W 057°24'2 1.2 1025.3
2016-Jun-23 06:00N 33°60' W 057°25'1 0.1 1025.6
2016-Jun-23 02:00N 34°00' W 057°25'0 0.3 1026.9
2016-Jun-23 01:00N 33°60' W 057°25'0 0.1 1026.9
2016-Jun-23 00:00N 33°60' W 057°24'1 0.6 1026.4
2016-Jun-22 22:00N 33°59' W 057°25'0 0.0 1025.5
2016-Jun-22 21:00N 33°59' W 057°25'0 0.4 1025.7
2016-Jun-22 20:00N 33°58' W 057°24'1 0.8 1025.4
2016-Jun-22 19:00N 33°58' W 057°24'0 0.4 1025.8
2016-Jun-22 18:00N 33°57' W 057°24'0 0.0 1026.3
2016-Jun-22 17:00N 33°57' W 057°24'0 0.0 1026.4
2016-Jun-22 16:00N 33°57' W 057°24'1 1.1 1026.8
2016-Jun-22 15:00N 33°57' W 057°25'0 0.0 1027.1
2016-Jun-22 14:00N 33°57' W 057°25'1 0.4 1027.2
2016-Jun-22 12:00N 33°56' W 057°25'0 0.4 1027.0
2016-Jun-22 11:00N 33°55' W 057°25'0 0.3 1026.8
2016-Jun-22 10:00N 33°55' W 057°25'1 0.4 1026.6
2016-Jun-22 08:00N 33°55' W 057°24'1 1.4 1025.7
2016-Jun-22 07:00N 33°54' W 057°26'0 0.0 1026.0
2016-Jun-22 06:00N 33°54' W 057°26'1 0.1 1026.2
2016-Jun-22 01:00N 33°54' W 057°26'   1026.9

Dump ship's entire track history